createdAt,value
2023-02-26T00:02:02.422Z,96776.72
2023-02-26T00:04:31.065Z,96779.47
2023-02-26T00:06:59.625Z,96781.50
2023-02-26T00:09:28.964Z,96783.44
2023-02-26T00:11:59.698Z,96786.06
2023-02-26T00:14:29.831Z,96784.84
2023-02-26T00:17:24.694Z,96797.84
2023-02-26T00:19:53.950Z,96790.94
2023-02-26T00:22:23.518Z,96790.34
2023-02-26T00:24:52.063Z,96783.44
2023-02-26T00:27:21.994Z,96791.19
2023-02-26T00:29:51.441Z,96792.97
2023-02-26T00:32:20.780Z,96792.84
2023-02-26T00:34:50.505Z,96794.78
2023-02-26T00:37:31.420Z,96796.44
2023-02-26T00:40:14.818Z,96801.66
2023-02-26T00:42:45.372Z,96798.19
2023-02-26T00:45:15.700Z,96799.28
2023-02-26T00:47:50.868Z,96796.91
2023-02-26T00:50:22.664Z,96801.31
2023-02-26T00:53:03.692Z,96803.00
2023-02-26T00:55:32.500Z,96803.94
2023-02-26T00:58:02.079Z,96810.25
2023-02-26T01:00:30.369Z,96811.47
2023-02-26T01:02:59.411Z,96806.34
2023-02-26T01:05:28.872Z,96811.81
2023-02-26T01:08:05.012Z,96810.41
2023-02-26T01:10:34.479Z,96819.19
2023-02-26T01:13:05.211Z,96817.56
2023-02-26T01:15:34.576Z,96817.56
2023-02-26T01:18:10.788Z,96821.13
2023-02-26T01:20:46.393Z,96823.88
2023-02-26T01:23:19.628Z,96813.41
2023-02-26T01:25:54.802Z,96816.25
2023-02-26T01:28:25.866Z,96819.69
2023-02-26T01:31:00.725Z,96818.16
2023-02-26T01:33:35.562Z,96814.56
2023-02-26T01:36:10.110Z,96821.63
2023-02-26T01:38:45.123Z,96822.53
2023-02-26T01:41:30.493Z,96827.06
2023-02-26T01:44:11.832Z,96830.72
2023-02-26T01:46:55.633Z,96834.31
2023-02-26T01:49:24.774Z,96829.31
2023-02-26T01:51:55.393Z,96831.22
2023-02-26T01:54:27.209Z,96838.59
2023-02-26T01:57:01.540Z,96836.09
2023-02-26T01:59:31.437Z,96840.03
2023-02-26T02:02:01.213Z,96840.97
2023-02-26T02:04:29.612Z,96837.19
2023-02-26T02:06:57.914Z,96843.47
2023-02-26T02:09:26.203Z,96843.72
2023-02-26T02:12:25.196Z,96843.00
2023-02-26T02:15:09.010Z,96848.22
2023-02-26T02:17:49.949Z,96858.69
2023-02-26T02:20:59.105Z,96853.69
2023-02-26T02:23:35.318Z,96862.50
2023-02-26T02:26:28.428Z,96863.66
2023-02-26T02:29:34.612Z,96861.41
2023-02-26T02:32:09.992Z,96864.84
2023-02-26T02:34:43.248Z,96870.22
2023-02-26T02:37:18.401Z,96873.91
2023-02-26T02:39:53.121Z,96871.41
2023-02-26T02:42:28.031Z,96863.91
2023-02-26T02:45:00.678Z,96871.41
2023-02-26T02:47:34.308Z,96874.94
2023-02-26T02:50:10.994Z,96869.94
2023-02-26T02:52:47.103Z,96880.53
2023-02-26T02:55:19.968Z,96875.63
2023-02-26T02:57:53.088Z,96878.88
2023-02-26T03:00:23.776Z,96882.44
2023-02-26T03:03:02.353Z,96880.06
2023-02-26T03:05:30.868Z,96884.44
2023-02-26T03:08:05.000Z,96893.13
2023-02-26T03:10:33.736Z,96900.13
2023-02-26T03:13:01.995Z,96895.97
2023-02-26T03:15:39.109Z,96907.38
2023-02-26T03:18:22.604Z,96916.38
2023-02-26T03:20:59.575Z,96917.22
2023-02-26T03:23:35.564Z,96924.09
2023-02-26T03:26:13.110Z,96919.91
2023-02-26T03:28:47.820Z,96916.38
2023-02-26T03:31:23.456Z,96924.22
2023-02-26T03:34:00.377Z,96921.94
2023-02-26T03:36:34.921Z,96919.31
2023-02-26T03:39:09.323Z,96928.94
2023-02-26T03:41:43.570Z,96925.47
2023-02-26T03:44:20.749Z,96923.81
2023-02-26T03:46:56.484Z,96932.63
2023-02-26T03:49:30.808Z,96927.50
2023-02-26T03:52:01.231Z,96934.72
2023-02-26T03:54:34.180Z,96930.78
2023-02-26T03:57:02.654Z,96941.34
2023-02-26T03:59:30.960Z,96948.47
2023-02-26T04:02:03.950Z,96941.56
2023-02-26T04:04:42.582Z,96945.97
2023-02-26T04:07:11.936Z,96949.00
2023-02-26T04:09:42.652Z,96950.19
2023-02-26T04:12:11.325Z,96958.97
2023-02-26T04:14:39.579Z,96956.69
2023-02-26T04:17:08.133Z,96959.63
2023-02-26T04:19:37.733Z,96960.44
2023-02-26T04:22:06.113Z,96960.44
2023-02-26T04:24:34.397Z,96968.28
2023-02-26T04:27:02.773Z,96964.97
2023-02-26T04:29:31.100Z,96970.31
2023-02-26T04:31:59.452Z,96967.69
2023-02-26T04:34:27.921Z,96967.06
2023-02-26T04:36:57.517Z,96972.41
2023-02-26T04:39:25.749Z,96978.38
2023-02-26T04:41:54.012Z,96981.19
2023-02-26T04:44:22.324Z,96975.97
2023-02-26T04:46:50.632Z,96982.97
2023-02-26T04:49:18.989Z,96991.97
2023-02-26T04:51:47.322Z,96991.97
2023-02-26T04:54:17.553Z,96999.06
2023-02-26T04:56:45.887Z,97000.63
2023-02-26T04:59:14.124Z,97010.25
2023-02-26T05:01:42.478Z,97009.28
2023-02-26T05:04:10.932Z,97017.44
2023-02-26T05:06:39.256Z,97018.91
2023-02-26T05:09:07.631Z,97022.47
2023-02-26T05:11:37.265Z,97017.34
2023-02-26T05:14:05.558Z,97026.94
2023-02-26T05:16:33.956Z,97026.13
2023-02-26T05:19:02.255Z,97035.00
2023-02-26T05:21:30.483Z,97029.97
2023-02-26T05:23:58.861Z,97035.00
2023-02-26T05:26:27.480Z,97035.94
2023-02-26T05:28:57.322Z,97036.25
2023-02-26T05:31:26.856Z,97034.59
2023-02-26T05:33:55.271Z,97043.47
2023-02-26T05:36:23.855Z,97040.97
2023-02-26T05:38:53.104Z,97038.25
2023-02-26T05:41:21.485Z,97035.72
2023-02-26T05:43:50.190Z,97038.34
2023-02-26T05:46:19.879Z,97046.81
2023-02-26T05:48:48.143Z,97053.00
2023-02-26T05:51:16.408Z,97055.81
2023-02-26T05:53:44.637Z,97065.09
2023-02-26T05:56:13.247Z,97062.59
2023-02-26T05:58:41.500Z,97067.72
2023-02-26T06:01:09.955Z,97080.56
2023-02-26T06:03:44.105Z,97081.28
2023-02-26T06:06:12.802Z,97078.69
2023-02-26T06:08:41.469Z,97087.97
2023-02-26T06:11:09.792Z,97085.34
2023-02-26T06:13:38.040Z,97091.31
2023-02-26T06:16:06.967Z,97092.97
2023-02-26T06:18:35.359Z,97097.25
2023-02-26T06:21:05.747Z,97103.22
2023-02-26T06:23:34.021Z,97103.22
2023-02-26T06:26:02.279Z,97107.59
2023-02-26T06:28:30.566Z,97102.38
2023-02-26T06:30:58.961Z,97105.94
2023-02-26T06:33:27.515Z,97113.66
2023-02-26T06:35:56.085Z,97123.91
2023-02-26T06:38:25.705Z,97122.25
2023-02-26T06:40:53.955Z,97124.75
2023-02-26T06:43:22.272Z,97134.25
2023-02-26T06:45:50.508Z,97139.38
2023-02-26T06:48:18.900Z,97144.38
2023-02-26T06:50:47.133Z,97137.28
2023-02-26T06:53:15.384Z,97142.31
2023-02-26T06:55:48.521Z,97154.31
2023-02-26T06:58:16.814Z,97148.03
2023-02-26T07:00:45.431Z,97154.00
2023-02-26T07:03:16.553Z,97150.44
2023-02-26T07:05:45.967Z,97151.06
2023-02-26T07:08:15.189Z,97158.69
2023-02-26T07:10:46.189Z,97156.69
2023-02-26T07:13:15.899Z,97166.00
2023-02-26T07:15:46.209Z,97170.81
2023-02-26T07:18:14.601Z,97173.81
2023-02-26T07:20:45.086Z,97175.28
2023-02-26T07:23:13.408Z,97184.25
2023-02-26T07:25:41.756Z,97178.59
2023-02-26T07:28:10.016Z,97188.53
2023-02-26T07:30:42.229Z,97185.28
2023-02-26T07:33:13.243Z,97184.50
2023-02-26T07:35:42.281Z,97187.41
2023-02-26T07:38:10.516Z,97188.22
2023-02-26T07:40:38.796Z,97190.25
2023-02-26T07:43:07.068Z,97196.63
2023-02-26T07:45:35.316Z,97193.47
2023-02-26T07:48:05.150Z,97198.25
2023-02-26T07:50:33.685Z,97207.97
2023-02-26T07:53:01.958Z,97210.94
2023-02-26T07:55:30.335Z,97225.97
2023-02-26T07:57:58.580Z,97213.97
2023-02-26T08:00:27.040Z,97222.13
2023-02-26T08:02:55.322Z,97235.38
2023-02-26T08:05:25.045Z,97234.81
2023-02-26T08:07:53.280Z,97230.66
2023-02-26T08:10:21.714Z,97227.47
2023-02-26T08:12:49.978Z,97233.16
2023-02-26T08:15:18.278Z,97245.13
2023-02-26T08:17:46.539Z,97242.38
2023-02-26T08:20:16.268Z,97253.91
2023-02-26T08:22:45.912Z,97262.13
2023-02-26T08:25:14.559Z,97257.00
2023-02-26T08:27:43.014Z,97262.47
2023-02-26T08:30:13.221Z,97274.03
2023-02-26T08:32:42.589Z,97272.59
2023-02-26T08:35:11.663Z,97273.91
2023-02-26T08:37:40.226Z,97280.28
2023-02-26T08:40:15.110Z,97280.88
2023-02-26T08:42:43.542Z,97273.84
2023-02-26T08:45:12.539Z,97288.59
2023-02-26T08:47:55.802Z,97283.25
2023-02-26T08:50:25.084Z,97290.66
2023-02-26T08:52:53.445Z,97300.03
2023-02-26T08:55:23.859Z,97291.97
2023-02-26T08:57:52.221Z,97292.38
2023-02-26T09:00:21.532Z,97300.16
2023-02-26T09:02:49.983Z,97299.94
2023-02-26T09:05:19.365Z,97293.72
2023-02-26T09:07:47.711Z,97299.81
2023-02-26T09:10:17.002Z,97309.66
2023-02-26T09:12:46.776Z,97311.44
2023-02-26T09:15:15.584Z,97318.72
2023-02-26T09:17:44.255Z,97318.72
2023-02-26T09:20:14.072Z,97324.56
2023-02-26T09:22:42.555Z,97331.59
2023-02-26T09:25:12.188Z,97332.47
2023-02-26T09:27:40.448Z,97337.22
2023-02-26T09:30:12.545Z,97340.09
2023-02-26T09:32:40.892Z,97341.06
2023-02-26T09:35:10.030Z,97341.78
2023-02-26T09:37:38.515Z,97351.63
2023-02-26T09:40:09.350Z,97353.00
2023-02-26T09:42:58.460Z,97350.09
2023-02-26T09:45:33.171Z,97344.97
2023-02-26T09:48:06.737Z,97343.44
2023-02-26T09:50:43.366Z,97350.97
2023-02-26T09:53:19.106Z,97353.72
2023-02-26T09:55:50.908Z,97364.38
2023-02-26T09:58:25.935Z,97370.63
2023-02-26T10:01:06.909Z,97367.88
2023-02-26T10:03:50.141Z,97363.78
2023-02-26T10:06:25.370Z,97359.31
2023-02-26T10:09:11.552Z,97371.81
2023-02-26T10:11:50.346Z,97369.06
2023-02-26T10:14:24.495Z,97371.69
2023-02-26T10:17:00.407Z,97377.09
2023-02-26T10:19:35.553Z,97372.56
2023-02-26T10:22:18.758Z,97371.94
2023-02-26T10:24:53.763Z,97369.81
2023-02-26T10:27:37.628Z,97366.16
2023-02-26T10:30:11.585Z,97365.81
2023-02-26T10:32:52.428Z,97365.16
2023-02-26T10:35:25.944Z,97369.06
2023-02-26T10:37:59.985Z,97372.81
2023-02-26T10:40:34.421Z,97376.44
2023-02-26T10:43:18.102Z,97364.75
2023-02-26T10:46:11.868Z,97371.41
2023-02-26T10:48:56.571Z,97377.66
2023-02-26T10:51:33.480Z,97373.75
2023-02-26T10:54:13.849Z,97374.41
2023-02-26T10:56:42.091Z,97375.25
2023-02-26T10:59:10.387Z,97370.38
2023-02-26T11:01:38.935Z,97370.09
2023-02-26T11:04:12.738Z,97376.94
2023-02-26T11:06:47.692Z,97372.91
2023-02-26T11:09:27.342Z,97368.31
2023-02-26T11:11:58.944Z,97376.25
2023-02-26T11:14:29.927Z,97377.25
2023-02-26T11:17:02.754Z,97373.50
2023-02-26T11:19:37.375Z,97372.13
2023-02-26T11:22:09.743Z,97374.78
2023-02-26T11:24:41.562Z,97374.91
2023-02-26T11:27:15.628Z,97373.66
2023-02-26T11:29:49.487Z,97371.81
2023-02-26T11:32:21.373Z,97372.66
2023-02-26T11:34:53.202Z,97367.69
2023-02-26T11:37:24.132Z,97371.53
2023-02-26T11:39:59.074Z,97367.94
2023-02-26T11:42:28.508Z,97360.28
2023-02-26T11:44:58.949Z,97357.91
2023-02-26T11:47:31.264Z,97355.28
2023-02-26T11:50:12.096Z,97341.78
2023-02-26T11:52:44.765Z,97339.44
2023-02-26T11:55:22.878Z,97340.97
2023-02-26T11:57:55.105Z,97332.94
2023-02-26T12:00:32.501Z,97330.84
2023-02-26T12:03:08.265Z,97313.47
2023-02-26T12:05:38.745Z,97306.94
2023-02-26T12:08:19.073Z,97306.09
2023-02-26T12:11:03.422Z,97304.84
2023-02-26T12:13:39.621Z,97311.63
2023-02-26T12:16:17.985Z,97314.28
2023-02-26T12:19:01.202Z,97328.31
2023-02-26T12:21:56.330Z,97338.97
2023-02-26T12:24:51.343Z,97348.69
2023-02-26T12:27:30.302Z,97348.72
2023-02-26T12:30:23.001Z,97359.75
2023-02-26T12:33:09.991Z,97361.97
2023-02-26T12:35:49.078Z,97362.31
2023-02-26T12:38:27.422Z,97361.16
2023-02-26T12:41:30.017Z,97371.38
2023-02-26T12:43:59.538Z,97367.88
2023-02-26T12:46:48.537Z,97381.66
2023-02-26T12:49:40.488Z,97369.19
2023-02-26T12:52:42.695Z,97382.09
2023-02-26T12:55:24.352Z,97374.47
2023-02-26T12:58:21.103Z,97381.13
2023-02-26T13:01:09.011Z,97376.56
2023-02-26T13:04:08.905Z,97392.78
2023-02-26T13:07:29.174Z,97390.13
2023-02-26T13:10:05.284Z,97384.59
2023-02-26T13:12:47.252Z,97385.16
2023-02-26T13:15:42.732Z,97379.09
2023-02-26T13:18:18.925Z,97374.59
2023-02-26T13:20:56.660Z,97378.81
2023-02-26T13:23:31.396Z,97368.53
2023-02-26T13:26:03.587Z,97378.97
2023-02-26T13:28:42.283Z,97387.88
2023-02-26T13:31:14.908Z,97382.16
2023-02-26T13:33:44.858Z,97370.63
2023-02-26T13:36:13.756Z,97380.63
2023-02-26T13:39:04.950Z,97375.63
2023-02-26T13:41:46.271Z,97375.44
2023-02-26T13:44:31.548Z,97376.81
2023-02-26T13:47:33.545Z,97382.91
2023-02-26T13:50:21.292Z,97391.22
2023-02-26T13:52:55.159Z,97390.03
2023-02-26T13:55:45.237Z,97391.59
2023-02-26T13:58:36.323Z,97381.31
2023-02-26T14:01:15.865Z,97397.13
2023-02-26T14:03:50.523Z,97387.53
2023-02-26T14:06:43.602Z,97391.22
2023-02-26T14:09:46.913Z,97394.78
2023-02-26T14:12:35.308Z,97396.75
2023-02-26T14:15:41.653Z,97392.41
2023-02-26T14:18:36.822Z,97399.31
2023-02-26T14:21:40.986Z,97399.38
2023-02-26T14:24:18.708Z,97398.00
2023-02-26T14:26:50.074Z,97404.81
2023-02-26T14:29:26.909Z,97407.84
2023-02-26T14:32:13.521Z,97418.91
2023-02-26T14:34:51.995Z,97419.88
2023-02-26T14:37:24.252Z,97425.84
2023-02-26T14:39:58.988Z,97431.25
2023-02-26T14:42:35.839Z,97430.66
2023-02-26T14:45:27.244Z,97432.72
2023-02-26T14:47:58.114Z,97427.81
2023-02-26T14:50:34.698Z,97442.94
2023-02-26T14:53:47.490Z,97439.59
2023-02-26T14:56:23.150Z,97448.00
2023-02-26T14:59:07.281Z,97448.34
2023-02-26T15:01:49.689Z,97446.91
2023-02-26T15:04:54.015Z,97456.88
2023-02-26T15:07:49.272Z,97451.75
2023-02-26T15:10:34.315Z,97456.78
2023-02-26T15:13:27.151Z,97460.41
2023-02-26T15:16:00.831Z,97464.81
2023-02-26T15:18:57.828Z,97475.34
2023-02-26T15:21:40.662Z,97486.00
2023-02-26T15:24:14.482Z,97502.78
2023-02-26T15:26:48.468Z,97496.09
2023-02-26T15:29:17.896Z,97509.13
2023-02-26T15:31:54.361Z,97514.75
2023-02-26T15:34:23.576Z,97520.25
2023-02-26T15:36:54.246Z,97518.13
2023-02-26T15:39:25.779Z,97534.03
2023-02-26T15:41:56.574Z,97526.25
2023-02-26T15:44:28.790Z,97528.88
2023-02-26T15:47:01.286Z,97536.31
2023-02-26T15:49:34.885Z,97540.97
2023-02-26T15:52:06.444Z,97541.22
2023-02-26T15:54:42.607Z,97541.56
2023-02-26T15:57:12.862Z,97544.31
2023-02-26T15:59:45.760Z,97550.44
2023-02-26T16:02:15.562Z,97546.09
2023-02-26T16:04:44.804Z,97549.69
2023-02-26T16:07:14.090Z,97546.59
2023-02-26T16:09:48.410Z,97546.47
2023-02-26T16:12:21.674Z,97548.41
2023-02-26T16:14:57.124Z,97550.19
2023-02-26T16:17:28.859Z,97554.69
2023-02-26T16:20:00.009Z,97562.00
2023-02-26T16:22:34.013Z,97574.19
2023-02-26T16:25:09.201Z,97579.09
2023-02-26T16:27:37.851Z,97586.16
2023-02-26T16:30:07.913Z,97588.41
2023-02-26T16:32:37.241Z,97590.44
2023-02-26T16:35:14.105Z,97591.56
2023-02-26T16:37:49.904Z,97586.56
2023-02-26T16:40:26.726Z,97592.88
2023-02-26T16:43:01.951Z,97599.22
2023-02-26T16:45:51.777Z,97598.72
2023-02-26T16:48:26.029Z,97608.38
2023-02-26T16:51:01.230Z,97616.38
2023-02-26T16:53:36.644Z,97619.34
2023-02-26T16:56:07.600Z,97629.28
2023-02-26T16:58:36.477Z,97625.91
2023-02-26T17:01:10.567Z,97629.84
2023-02-26T17:03:40.626Z,97629.56
2023-02-26T17:06:14.791Z,97647.34
2023-02-26T17:08:50.404Z,97651.88
2023-02-26T17:11:27.215Z,97651.34
2023-02-26T17:14:19.090Z,97666.97
2023-02-26T17:16:48.069Z,97672.44
2023-02-26T17:19:17.019Z,97680.31
2023-02-26T17:21:50.261Z,97691.25
2023-02-26T17:24:22.328Z,97690.53
2023-02-26T17:26:52.761Z,97690.03
2023-02-26T17:29:24.115Z,97690.34
2023-02-26T17:31:53.054Z,97696.66
2023-02-26T17:34:23.035Z,97710.00
2023-02-26T17:36:51.781Z,97708.53
2023-02-26T17:39:20.064Z,97715.78
2023-02-26T17:41:49.097Z,97721.13
2023-02-26T17:44:19.770Z,97716.84
2023-02-26T17:46:48.093Z,97725.66
2023-02-26T17:49:16.587Z,97720.53
2023-02-26T17:51:44.907Z,97724.94
2023-02-26T17:54:13.185Z,97721.44
2023-02-26T17:56:42.225Z,97729.44
2023-02-26T17:59:13.044Z,97731.13
2023-02-26T18:01:43.072Z,97730.38
2023-02-26T18:04:13.311Z,97729.53
2023-02-26T18:06:41.664Z,97730.50
2023-02-26T18:09:12.928Z,97731.44
2023-02-26T18:11:43.006Z,97744.47
2023-02-26T18:14:12.289Z,97735.00
2023-02-26T18:16:45.320Z,97740.34
2023-02-26T18:19:16.148Z,97744.91
2023-02-26T18:21:44.439Z,97737.22
2023-02-26T18:24:12.681Z,97747.50
2023-02-26T18:26:41.059Z,97744.16
2023-02-26T18:29:09.315Z,97752.97
2023-02-26T18:31:38.128Z,97752.97
2023-02-26T18:34:09.268Z,97760.00
2023-02-26T18:36:39.786Z,97759.16
2023-02-26T18:39:12.465Z,97747.94
2023-02-26T18:41:40.752Z,97753.19
2023-02-26T18:44:09.101Z,97754.97
2023-02-26T18:46:40.177Z,97753.19
2023-02-26T18:49:19.758Z,97761.28
2023-02-26T18:51:48.211Z,97774.59
2023-02-26T18:54:16.529Z,97773.03
2023-02-26T18:56:45.805Z,97771.22
2023-02-26T18:59:14.397Z,97776.47
2023-02-26T19:01:43.104Z,97782.78
2023-02-26T19:04:12.818Z,97789.78
2023-02-26T19:06:41.078Z,97784.75
2023-02-26T19:09:09.677Z,97789.41
2023-02-26T19:11:38.405Z,97784.16
2023-02-26T19:14:06.950Z,97789.41
2023-02-26T19:16:39.418Z,97791.25
2023-02-26T19:19:11.773Z,97795.66
2023-02-26T19:21:42.283Z,97799.25
2023-02-26T19:24:13.028Z,97807.97
2023-02-26T19:26:42.459Z,97808.97
2023-02-26T19:29:14.938Z,97809.84
2023-02-26T19:31:43.725Z,97817.81
2023-02-26T19:34:12.263Z,97815.19
2023-02-26T19:36:48.150Z,97813.41
2023-02-26T19:39:19.439Z,97824.00
2023-02-26T19:41:50.436Z,97828.41
2023-02-26T19:44:20.272Z,97823.25
2023-02-26T19:46:49.187Z,97823.16
2023-02-26T19:49:18.791Z,97830.91
2023-02-26T19:51:48.449Z,97830.91
2023-02-26T19:54:16.869Z,97835.22
2023-02-26T19:56:45.403Z,97830.91
2023-02-26T19:59:14.083Z,97829.16
2023-02-26T20:01:43.813Z,97833.44
2023-02-26T20:04:12.295Z,97834.28
2023-02-26T20:06:40.677Z,97836.06
2023-02-26T20:09:12.119Z,97842.25
2023-02-26T20:11:40.627Z,97840.47
2023-02-26T20:14:08.959Z,97842.25
2023-02-26T20:16:37.252Z,97845.00
2023-02-26T20:19:05.630Z,97844.25
2023-02-26T20:21:34.040Z,97845.91
2023-02-26T20:24:03.249Z,97858.09
2023-02-26T20:26:33.691Z,97849.28
2023-02-26T20:29:02.020Z,97859.78
2023-02-26T20:31:31.591Z,97844.13
2023-02-26T20:34:00.103Z,97851.16
2023-02-26T20:36:28.606Z,97848.53
2023-02-26T20:38:56.932Z,97862.59
2023-02-26T20:41:25.576Z,97856.41
2023-02-26T20:43:57.630Z,97860.81
2023-02-26T20:46:27.136Z,97861.03
2023-02-26T20:48:55.540Z,97864.47
2023-02-26T20:51:24.005Z,97856.69
2023-02-26T20:53:52.610Z,97865.41
2023-02-26T20:56:20.923Z,97855.13
2023-02-26T20:58:50.114Z,97862.91
2023-02-26T21:01:19.811Z,97862.16
2023-02-26T21:03:48.129Z,97860.38
2023-02-26T21:06:16.600Z,97867.50
2023-02-26T21:08:45.212Z,97867.38
2023-02-26T21:11:13.769Z,97865.63
2023-02-26T21:13:42.061Z,97860.56
2023-02-26T21:16:10.899Z,97859.63
2023-02-26T21:18:40.609Z,97860.78
2023-02-26T21:21:09.052Z,97863.41
2023-02-26T21:23:37.462Z,97869.69
2023-02-26T21:26:05.908Z,97874.00
2023-02-26T21:28:34.241Z,97882.81
2023-02-26T21:31:02.667Z,97883.81
2023-02-26T21:33:30.969Z,97889.81
2023-02-26T21:36:00.646Z,97883.81
2023-02-26T21:38:29.167Z,97891.59
2023-02-26T21:40:57.530Z,97896.94
2023-02-26T21:43:25.927Z,97904.09
2023-02-26T21:45:54.322Z,97901.47
2023-02-26T21:48:22.661Z,97905.94
2023-02-26T21:50:52.119Z,97906.91
2023-02-26T21:53:21.903Z,97908.56
2023-02-26T21:55:50.288Z,97907.63
2023-02-26T21:58:18.664Z,97911.94
2023-02-26T22:00:47.170Z,97911.00
2023-02-26T22:03:15.518Z,97908.38
2023-02-26T22:05:43.879Z,97911.09
2023-02-26T22:08:12.216Z,97911.84
2023-02-26T22:10:41.821Z,97910.91
2023-02-26T22:13:10.082Z,97915.28
2023-02-26T22:15:38.692Z,97921.47
2023-02-26T22:18:07.146Z,97919.91
2023-02-26T22:20:35.361Z,97927.69
2023-02-26T22:23:04.671Z,97926.81
2023-02-26T22:25:33.230Z,97933.03
2023-02-26T22:28:02.859Z,97931.41
2023-02-26T22:30:31.121Z,97929.03
2023-02-26T22:32:59.386Z,97939.59
2023-02-26T22:35:27.741Z,97933.59
2023-02-26T22:37:56.015Z,97941.56
2023-02-26T22:40:24.912Z,97945.13
2023-02-26T22:42:53.184Z,97940.00
2023-02-26T22:45:23.003Z,97947.84
2023-02-26T22:47:51.471Z,97951.41
2023-02-26T22:50:20.227Z,97955.06
2023-02-26T22:52:49.335Z,97944.78
2023-02-26T22:55:17.819Z,97944.00
2023-02-26T22:57:46.074Z,97948.53
2023-02-26T23:00:18.683Z,97944.22
2023-02-26T23:02:50.133Z,97941.59
2023-02-26T23:05:20.600Z,97943.38
2023-02-26T23:07:49.867Z,97953.78
2023-02-26T23:10:21.468Z,97946.00
2023-02-26T23:12:50.253Z,97948.53
2023-02-26T23:15:18.609Z,97952.81
2023-02-26T23:17:48.208Z,97954.78
2023-02-26T23:20:17.972Z,97951.34
2023-02-26T23:22:46.205Z,97952.25
2023-02-26T23:25:14.491Z,97958.25
2023-02-26T23:27:43.134Z,97959.22
2023-02-26T23:30:13.425Z,97954.06
2023-02-26T23:32:41.803Z,97961.81
2023-02-26T23:35:12.067Z,97962.75
2023-02-26T23:37:40.498Z,97960.13
2023-02-26T23:40:14.176Z,97969.69
2023-02-26T23:42:42.704Z,97968.19
2023-02-26T23:45:12.622Z,97972.41
2023-02-26T23:47:41.179Z,97968.19
2023-02-26T23:50:12.618Z,97968.28
2023-02-26T23:52:40.956Z,97973.59
2023-02-26T23:55:11.049Z,97978.13
2023-02-26T23:57:39.721Z,97974.75
